Time;durP1;ratioP1;P1;durP2;ratioP2;P2;SDS_P1;SDS_P2;PMS_P1;PMS_P2;Temp;Humidity;BMP_temperature;BMP_pressure;BME280_temperature;BME280_humidity;BME280_pressure;Samples;Min_cycle;Max_cycle;Signal;HPM_P1;HPM_P2
2023/10/28 00:02:27;;;;;;;1.80;1.20;;;;;;;9.10;100.00;94881.55;108332;1278;25428;-79
2023/10/28 00:04:58;;;;;;;5.60;1.70;;;;;;;9.12;100.00;94885.31;108277;1278;25279;-79
2023/10/28 00:07:29;;;;;;;2.00;1.20;;;;;;;9.11;100.00;94888.30;108319;1278;24219;-79
2023/10/28 00:10:00;;;;;;;3.30;1.50;;;;;;;9.11;100.00;94890.98;108302;1278;23818;-79
2023/10/28 00:12:31;;;;;;;2.50;1.40;;;;;;;9.11;100.00;94887.27;108351;1270;22522;-79
2023/10/28 00:15:03;;;;;;;2.30;1.30;;;;;;;9.12;100.00;94885.79;108332;1278;22744;-79
2023/10/28 00:17:34;;;;;;;2.20;1.10;;;;;;;9.13;100.00;94893.59;108391;1278;22521;-79
2023/10/28 00:20:08;;;;;;;1.80;1.40;;;;;;;9.13;100.00;94895.33;108283;1277;22529;-78
2023/10/28 00:22:39;;;;;;;1.20;1.10;;;;;;;9.14;100.00;94895.55;108361;1278;24984;-79
2023/10/28 00:25:11;;;;;;;3.20;1.20;;;;;;;9.17;100.00;94892.44;108308;1270;22694;-79
2023/10/28 00:27:42;;;;;;;0.90;0.70;;;;;;;9.17;100.00;94891.63;108318;1278;22521;-79
2023/10/28 00:30:14;;;;;;;1.40;0.80;;;;;;;9.19;100.00;94897.66;108341;1278;25411;-79
2023/10/28 00:32:50;;;;;;;2.20;1.00;;;;;;;9.20;100.00;94893.73;108405;1278;22668;-79
2023/10/28 00:35:23;;;;;;;1.60;1.10;;;;;;;9.21;100.00;94896.40;108372;1278;22517;-79
2023/10/28 00:37:54;;;;;;;1.80;1.10;;;;;;;9.21;100.00;94897.45;108318;1278;25043;-79
2023/10/28 00:40:28;;;;;;;1.80;1.30;;;;;;;9.20;100.00;94897.62;108324;1266;27017;-79
2023/10/28 00:43:00;;;;;;;1.80;1.10;;;;;;;9.19;100.00;94900.39;108334;1277;22519;-79
2023/10/28 00:45:32;;;;;;;1.30;1.20;;;;;;;9.17;100.00;94904.31;108321;1278;22517;-79
2023/10/28 00:48:04;;;;;;;3.70;1.40;;;;;;;9.15;100.00;94908.12;108321;1278;25279;-79
2023/10/28 00:50:35;;;;;;;1.30;1.20;;;;;;;9.11;100.00;94906.84;108308;1254;24061;-78
2023/10/28 00:53:06;;;;;;;1.30;1.00;;;;;;;9.08;100.00;94904.29;108318;1278;22639;-79
2023/10/28 00:55:37;;;;;;;1.50;1.10;;;;;;;9.08;100.00;94909.27;108343;1277;22519;-79
2023/10/28 00:58:09;;;;;;;2.60;1.80;;;;;;;9.08;100.00;94915.36;108292;1278;23789;-79
2023/10/28 01:00:40;;;;;;;0.80;0.70;;;;;;;9.08;100.00;94915.59;108324;1278;22518;-79
2023/10/28 01:03:11;;;;;;;1.50;0.90;;;;;;;9.07;100.00;94921.89;108312;1278;25261;-78
2023/10/28 01:05:42;;;;;;;0.80;0.60;;;;;;;9.06;100.00;94926.63;108342;1278;25290;-78
2023/10/28 01:08:13;;;;;;;1.00;0.90;;;;;;;9.06;100.00;94928.73;108354;1278;22514;-79
2023/10/28 01:10:47;;;;;;;1.00;0.90;;;;;;;9.04;100.00;94929.83;108323;1278;25422;-79
2023/10/28 01:13:19;;;;;;;1.10;0.70;;;;;;;9.02;100.00;94931.14;108364;1278;22525;-79
2023/10/28 01:15:49;;;;;;;0.70;0.60;;;;;;;9.02;100.00;94931.73;108384;1278;22521;-79
2023/10/28 01:18:20;;;;;;;1.40;1.00;;;;;;;9.00;100.00;94935.83;108364;1270;26437;-79
2023/10/28 01:20:51;;;;;;;0.70;0.70;;;;;;;8.98;100.00;94933.69;108347;1278;23858;-79
2023/10/28 01:23:22;;;;;;;0.90;0.50;;;;;;;8.94;100.00;94936.27;108314;1270;26604;-79
2023/10/28 01:25:53;;;;;;;1.50;0.90;;;;;;;8.92;100.00;94942.15;108351;1276;25216;-79
2023/10/28 01:28:24;;;;;;;0.90;0.60;;;;;;;8.91;100.00;94946.62;108324;1278;22631;-79
2023/10/28 01:30:56;;;;;;;1.20;0.60;;;;;;;8.91;100.00;94950.20;108332;1270;24238;-79
2023/10/28 01:33:27;;;;;;;1.30;0.70;;;;;;;8.95;100.00;94952.74;108368;1278;22581;-79
2023/10/28 01:35:58;;;;;;;1.70;0.80;;;;;;;8.97;100.00;94958.59;108253;1270;22653;-79
2023/10/28 01:38:29;;;;;;;0.70;0.60;;;;;;;8.95;100.00;94956.79;108265;1278;29629;-78
2023/10/28 01:41:00;;;;;;;0.60;0.60;;;;;;;8.91;100.00;94965.83;108364;1278;23323;-79
2023/10/28 01:43:31;;;;;;;0.80;0.70;;;;;;;8.90;100.00;94970.22;108335;1274;25284;-79
2023/10/28 01:46:02;;;;;;;1.90;0.40;;;;;;;8.90;100.00;94971.59;108367;1278;22542;-79
2023/10/28 01:48:33;;;;;;;1.10;0.40;;;;;;;8.88;100.00;94980.57;108309;1278;22553;-79
2023/10/28 01:51:04;;;;;;;0.50;0.40;;;;;;;8.85;100.00;94977.98;108337;1278;22532;-79
2023/10/28 01:53:35;;;;;;;0.90;0.80;;;;;;;8.82;100.00;94974.60;108347;1278;22587;-78
2023/10/28 01:56:07;;;;;;;0.90;0.50;;;;;;;8.79;100.00;94981.80;108360;1277;23027;-79
2023/10/28 01:58:38;;;;;;;1.40;0.80;;;;;;;8.80;100.00;94978.89;108273;1270;24251;-78
2023/10/28 02:01:10;;;;;;;1.20;0.80;;;;;;;8.79;100.00;94992.78;108342;1270;22511;-78
2023/10/28 02:03:41;;;;;;;0.50;0.50;;;;;;;8.74;100.00;94995.54;108319;1268;22556;-78
2023/10/28 02:06:11;;;;;;;0.70;0.40;;;;;;;8.72;100.00;94995.95;108332;1271;25304;-78
2023/10/28 02:08:42;;;;;;;0.80;0.60;;;;;;;8.73;100.00;95001.55;108321;1278;22564;-78
2023/10/28 02:11:13;;;;;;;0.90;0.80;;;;;;;8.74;100.00;95003.15;108332;1278;25527;-78
2023/10/28 02:13:47;;;;;;;0.70;0.60;;;;;;;8.80;100.00;95006.21;108383;1271;23168;-79
2023/10/28 02:16:21;;;;;;;1.10;0.80;;;;;;;8.85;100.00;95011.88;108328;1278;25388;-79
2023/10/28 02:18:52;;;;;;;1.20;0.60;;;;;;;8.87;100.00;95001.90;108327;1278;25150;-79
2023/10/28 02:21:24;;;;;;;2.30;0.70;;;;;;;8.89;100.00;95002.86;108322;1278;22548;-79
2023/10/28 02:23:55;;;;;;;0.90;0.60;;;;;;;8.89;100.00;95001.10;108317;1278;22559;-79
2023/10/28 02:26:26;;;;;;;2.00;0.90;;;;;;;8.91;100.00;94999.35;108370;1278;25425;-79
2023/10/28 02:28:57;;;;;;;0.90;0.80;;;;;;;8.93;100.00;95005.38;108326;1278;22522;-79
2023/10/28 02:31:27;;;;;;;1.30;0.90;;;;;;;8.93;100.00;95011.60;108323;1278;22527;-78
2023/10/28 02:33:58;;;;;;;1.40;0.80;;;;;;;8.92;100.00;95013.13;108264;1278;22522;-79
2023/10/28 02:36:30;;;;;;;0.80;0.60;;;;;;;8.91;100.00;95017.07;108309;1278;22546;-79
2023/10/28 02:39:01;;;;;;;0.90;0.50;;;;;;;8.89;100.00;95015.33;108306;1278;22531;-79
2023/10/28 02:41:32;;;;;;;1.20;0.80;;;;;;;8.88;100.00;95014.98;108332;1278;22524;-78
2023/10/28 02:44:04;;;;;;;1.10;0.70;;;;;;;8.87;100.00;95023.52;108315;1274;22535;-79
2023/10/28 02:46:35;;;;;;;0.80;0.70;;;;;;;8.85;100.00;95032.55;108376;1278;22720;-79
2023/10/28 02:49:07;;;;;;;1.10;1.00;;;;;;;8.85;100.00;95036.14;108348;1278;24766;-78
2023/10/28 02:51:38;;;;;;;1.20;0.60;;;;;;;8.87;100.00;95036.36;108317;1278;23983;-79
2023/10/28 02:54:09;;;;;;;0.80;0.70;;;;;;;8.87;100.00;95031.70;108296;1270;22542;-79
2023/10/28 02:56:40;;;;;;;1.10;0.60;;;;;;;8.89;100.00;95041.08;108327;1256;24587;-79
2023/10/28 02:59:19;;;;;;;1.10;0.50;;;;;;;8.92;100.00;95048.08;108302;1278;23277;-79
2023/10/28 03:01:52;;;;;;;0.60;0.60;;;;;;;8.93;100.00;95042.60;108343;1278;22539;-79
2023/10/28 03:04:23;;;;;;;0.80;0.50;;;;;;;8.94;100.00;95051.03;108335;1278;25464;-78
2023/10/28 03:06:54;;;;;;;0.60;0.50;;;;;;;8.92;100.00;95051.50;108315;1278;22520;-79
2023/10/28 03:09:25;;;;;;;0.90;0.80;;;;;;;8.88;100.00;95047.70;108312;1274;23029;-79
2023/10/28 03:11:56;;;;;;;0.60;0.60;;;;;;;8.86;100.00;95050.49;108334;1278;22565;-78
2023/10/28 03:14:27;;;;;;;0.90;0.80;;;;;;;8.84;100.00;95051.48;108366;1278;24120;-79
2023/10/28 03:16:58;;;;;;;1.70;0.70;;;;;;;8.80;100.00;95058.47;108347;1278;22522;-78
2023/10/28 03:19:28;;;;;;;0.70;0.70;;;;;;;8.78;100.00;95058.80;108311;1278;27757;-78
2023/10/28 03:21:59;;;;;;;0.70;0.60;;;;;;;8.76;100.00;95054.04;108337;1278;22531;-78
2023/10/28 03:24:30;;;;;;;0.90;0.90;;;;;;;8.74;100.00;95060.45;108288;1278;22570;-78
2023/10/28 03:27:01;;;;;;;0.70;0.70;;;;;;;8.71;100.00;95066.25;108308;1278;22513;-78
2023/10/28 03:29:31;;;;;;;1.20;0.60;;;;;;;8.68;100.00;95068.04;108310;1278;24804;-78
2023/10/28 03:32:02;;;;;;;0.80;0.70;;;;;;;8.65;100.00;95067.63;108311;1278;22525;-78
2023/10/28 03:34:33;;;;;;;2.00;0.60;;;;;;;8.62;100.00;95066.49;108353;1278;22560;-78
2023/10/28 03:37:04;;;;;;;1.90;0.70;;;;;;;8.61;100.00;95063.52;108297;1278;24971;-78
2023/10/28 03:39:35;;;;;;;0.50;0.50;;;;;;;8.60;100.00;95067.18;108321;1278;25165;-78
2023/10/28 03:42:06;;;;;;;0.50;0.50;;;;;;;8.61;100.00;95070.32;108344;1270;22517;-78
2023/10/28 03:44:38;;;;;;;0.70;0.40;;;;;;;8.62;100.00;95072.89;108346;1277;25428;-78
2023/10/28 03:47:09;;;;;;;0.80;0.80;;;;;;;8.62;100.00;95071.78;108362;1277;25147;-78
2023/10/28 03:49:42;;;;;;;5.40;0.70;;;;;;;8.62;100.00;95072.30;108265;1277;22521;-78
2023/10/28 03:52:13;;;;;;;0.80;0.50;;;;;;;8.62;100.00;95072.21;108311;1278;25370;-78
2023/10/28 03:54:44;;;;;;;2.60;0.80;;;;;;;8.62;100.00;95073.43;108346;1277;22589;-78
2023/10/28 03:57:16;;;;;;;0.70;0.40;;;;;;;8.64;100.00;95079.96;108329;1278;22535;-78
2023/10/28 03:59:48;;;;;;;2.00;0.80;;;;;;;8.67;100.00;95083.23;108295;1277;22524;-78
2023/10/28 04:02:19;;;;;;;0.90;0.60;;;;;;;8.68;100.00;95079.50;108458;1278;22562;-78
2023/10/28 04:04:50;;;;;;;1.00;0.60;;;;;;;8.66;100.00;95084.73;108278;1277;24181;-78
2023/10/28 04:07:21;;;;;;;2.10;1.10;;;;;;;8.65;100.00;95078.63;108351;1277;23262;-78
2023/10/28 04:09:54;;;;;;;0.40;0.40;;;;;;;8.66;100.00;95080.77;108290;1277;22524;-78
2023/10/28 04:12:25;;;;;;;1.00;0.70;;;;;;;8.66;100.00;95082.77;108292;1278;23008;-78
2023/10/28 04:14:56;;;;;;;2.30;0.60;;;;;;;8.70;100.00;95088.68;108391;1278;22772;-78
2023/10/28 04:17:30;;;;;;;1.10;0.60;;;;;;;8.77;100.00;95088.67;108334;1278;24229;-78
2023/10/28 04:20:01;;;;;;;1.10;0.70;;;;;;;8.80;100.00;95086.79;108340;1274;22565;-78
2023/10/28 04:22:32;;;;;;;0.60;0.60;;;;;;;8.83;100.00;95092.52;108283;1278;22539;-78
2023/10/28 04:25:03;;;;;;;1.20;0.90;;;;;;;8.83;100.00;95087.51;108330;1278;22543;-78
2023/10/28 04:27:34;;;;;;;0.90;0.60;;;;;;;8.83;100.00;95095.50;108308;1278;22525;-78
2023/10/28 04:30:08;;;;;;;0.40;0.40;;;;;;;8.80;100.00;95088.43;108363;1277;22613;-78
2023/10/28 04:32:39;;;;;;;0.40;0.40;;;;;;;8.79;100.00;95089.36;108443;1278;27431;-78
2023/10/28 04:35:11;;;;;;;1.50;0.40;;;;;;;8.76;100.00;95086.71;108326;1278;25701;-78
2023/10/28 04:37:41;;;;;;;0.90;0.60;;;;;;;8.74;100.00;95086.58;108349;1278;22520;-78
2023/10/28 04:40:14;;;;;;;2.30;0.60;;;;;;;8.71;100.00;95082.75;108299;1278;23517;-79
2023/10/28 04:42:51;;;;;;;2.80;0.60;;;;;;;8.65;100.00;95079.52;108337;1278;22536;-79
2023/10/28 04:45:22;;;;;;;0.30;0.20;;;;;;;8.59;100.00;95084.31;108306;1278;25168;-79
2023/10/28 04:47:53;;;;;;;0.30;0.20;;;;;;;8.57;100.00;95083.58;108300;1278;23440;-79
2023/10/28 04:50:24;;;;;;;0.70;0.30;;;;;;;8.59;100.00;95085.23;108272;1278;28142;-79
2023/10/28 04:52:55;;;;;;;1.00;0.50;;;;;;;8.58;100.00;95081.95;108279;1277;22581;-79
2023/10/28 04:55:26;;;;;;;0.50;0.40;;;;;;;8.56;100.00;95079.75;108334;1274;22644;-78
2023/10/28 04:57:57;;;;;;;1.20;0.20;;;;;;;8.57;100.00;95083.41;108305;1278;23906;-79
2023/10/28 05:00:28;;;;;;;0.50;0.30;;;;;;;8.52;99.90;95081.84;108387;1278;24168;-79
2023/10/28 05:02:59;;;;;;;0.80;0.50;;;;;;;8.51;99.82;95087.66;108337;1277;22534;-79
2023/10/28 05:05:30;;;;;;;2.50;0.60;;;;;;;8.48;99.65;95087.89;108327;1278;25428;-79
2023/10/28 05:08:01;;;;;;;1.60;0.60;;;;;;;8.46;99.50;95084.59;108329;1277;25255;-79
2023/10/28 05:10:32;;;;;;;2.00;0.80;;;;;;;8.47;99.42;95088.39;108291;1272;23749;-79
2023/10/28 05:13:03;;;;;;;0.50;0.40;;;;;;;8.51;99.10;95096.30;108310;1278;24221;-78
2023/10/28 05:15:34;;;;;;;2.40;0.60;;;;;;;8.58;98.68;95100.67;108298;1271;22520;-78
2023/10/28 05:18:05;;;;;;;0.40;0.30;;;;;;;8.59;98.34;95105.20;108270;1278;22546;-79
2023/10/28 05:20:36;;;;;;;1.50;0.40;;;;;;;8.59;98.27;95105.61;108314;1278;30834;-79
2023/10/28 05:23:07;;;;;;;1.10;0.50;;;;;;;8.59;97.91;95109.48;108344;1278;22514;-78
2023/10/28 05:25:38;;;;;;;1.50;0.40;;;;;;;8.60;97.69;95106.40;108296;1278;22523;-79
2023/10/28 05:28:10;;;;;;;1.00;0.50;;;;;;;8.57;97.64;95109.72;108347;1278;22517;-78
2023/10/28 05:30:41;;;;;;;1.40;0.60;;;;;;;8.52;97.57;95119.25;108411;1278;22985;-79
2023/10/28 05:33:13;;;;;;;0.70;0.50;;;;;;;8.46;97.57;95121.31;108285;1278;22522;-79
2023/10/28 05:35:51;;;;;;;0.90;0.40;;;;;;;8.43;97.49;95120.52;108307;1255;22539;-79
2023/10/28 05:38:22;;;;;;;0.70;0.60;;;;;;;8.40;97.52;95126.66;108317;1278;25298;-79
2023/10/28 05:40:54;;;;;;;0.40;0.40;;;;;;;8.40;97.52;95128.24;108284;1277;24235;-79
2023/10/28 05:43:25;;;;;;;0.40;0.20;;;;;;;8.42;97.43;95125.23;108364;1278;22513;-79
2023/10/28 05:45:56;;;;;;;0.60;0.40;;;;;;;8.47;97.13;95125.36;108329;1277;24240;-79
2023/10/28 05:48:28;;;;;;;1.40;0.50;;;;;;;8.49;96.98;95126.59;108351;1267;22520;-79
2023/10/28 05:51:02;;;;;;;4.20;0.30;;;;;;;8.46;96.83;95129.86;108466;1274;25257;-79
2023/10/28 05:53:33;;;;;;;1.90;0.50;;;;;;;8.49;96.73;95131.36;108337;1278;22537;-79
2023/10/28 05:56:05;;;;;;;1.30;0.50;;;;;;;8.52;96.51;95132.56;108329;1254;22606;-79
2023/10/28 05:58:36;;;;;;;1.70;0.60;;;;;;;8.54;96.44;95140.42;108399;1274;26385;-78
2023/10/28 06:01:07;;;;;;;0.90;0.40;;;;;;;8.53;96.22;95145.05;108355;1270;26668;-79
2023/10/28 06:03:39;;;;;;;1.10;0.40;;;;;;;8.56;96.16;95142.98;108259;1278;22547;-79
2023/10/28 06:06:10;;;;;;;0.80;0.60;;;;;;;8.59;96.05;95147.56;108320;1270;22574;-79
2023/10/28 06:08:40;;;;;;;1.20;0.50;;;;;;;8.70;96.03;95153.54;108261;1271;22514;-78
2023/10/28 06:11:11;;;;;;;4.30;0.80;;;;;;;8.91;96.01;95156.70;108278;1278;22792;-79
2023/10/28 06:13:42;;;;;;;1.00;0.70;;;;;;;9.10;95.69;95159.79;108311;1278;25301;-79
2023/10/28 06:16:14;;;;;;;0.80;0.60;;;;;;;9.27;95.37;95164.10;108287;1274;22515;-79
2023/10/28 06:18:47;;;;;;;1.10;0.50;;;;;;;9.56;95.22;95170.08;108233;1277;38179;-79
2023/10/28 06:21:21;;;;;;;1.10;0.60;;;;;;;10.14;95.02;95174.71;108301;1278;22623;-79
2023/10/28 06:23:53;;;;;;;0.50;0.40;;;;;;;10.89;94.14;95180.30;108287;1278;22589;-79
2023/10/28 06:26:23;;;;;;;1.30;0.50;;;;;;;11.56;93.30;95185.95;108308;1278;22654;-79
2023/10/28 06:28:54;;;;;;;0.40;0.40;;;;;;;12.21;92.08;95192.27;108287;1278;37385;-79
2023/10/28 06:31:26;;;;;;;2.40;0.90;;;;;;;12.65;90.94;95192.25;108312;1278;22568;-79
2023/10/28 06:34:00;;;;;;;1.00;0.70;;;;;;;13.01;89.21;95200.84;108373;1277;22660;-79
2023/10/28 06:36:32;;;;;;;1.10;0.70;;;;;;;13.60;88.08;95203.07;108334;1274;25413;-79
2023/10/28 06:39:03;;;;;;;0.70;0.50;;;;;;;14.20;87.30;95210.10;108290;1278;23753;-78
2023/10/28 06:41:34;;;;;;;1.00;0.60;;;;;;;14.43;85.42;95212.56;108313;1278;23974;-79
2023/10/28 06:44:09;;;;;;;1.20;0.90;;;;;;;14.69;84.23;95223.00;108316;1268;24195;-79
2023/10/28 06:46:40;;;;;;;1.60;0.90;;;;;;;14.98;83.29;95222.91;108315;1278;24208;-79
2023/10/28 06:49:11;;;;;;;1.50;0.60;;;;;;;15.27;82.65;95229.03;108270;1277;22531;-79
2023/10/28 06:51:43;;;;;;;1.70;0.70;;;;;;;15.54;81.38;95240.17;108324;1278;24053;-79
2023/10/28 06:54:15;;;;;;;2.40;0.70;;;;;;;15.74;80.29;95240.70;108312;1278;22528;-79
2023/10/28 06:56:47;;;;;;;1.90;0.80;;;;;;;16.02;79.45;95252.85;108323;1264;22524;-79
2023/10/28 06:59:23;;;;;;;2.70;1.00;;;;;;;16.18;78.18;95254.73;108314;1278;22536;-79
2023/10/28 07:01:55;;;;;;;4.60;1.10;;;;;;;16.44;77.75;95262.98;108278;1278;22719;-79
2023/10/28 07:04:25;;;;;;;1.80;1.00;;;;;;;16.88;77.11;95269.41;108340;1278;23322;-79
2023/10/28 07:06:56;;;;;;;1.20;1.00;;;;;;;16.94;76.19;95273.41;108310;1271;23061;-79
2023/10/28 07:09:28;;;;;;;1.60;1.10;;;;;;;16.84;74.53;95279.48;108298;1278;22531;-79
2023/10/28 07:12:00;;;;;;;2.40;1.00;;;;;;;16.60;74.13;95287.59;108323;1278;22532;-79
2023/10/28 07:14:31;;;;;;;1.90;1.00;;;;;;;16.07;73.18;95300.86;108328;1268;22967;-79
2023/10/28 07:17:04;;;;;;;1.30;0.90;;;;;;;15.48;73.51;95303.21;108280;1278;22565;-78
2023/10/28 07:19:35;;;;;;;1.90;1.30;;;;;;;14.77;73.42;95315.61;108281;1271;22539;-78
2023/10/28 07:22:06;;;;;;;1.20;0.90;;;;;;;14.35;73.72;95317.14;108310;1277;24826;-79
2023/10/28 07:24:37;;;;;;;3.50;1.00;;;;;;;14.08;73.67;95330.75;108307;1277;22532;-79
2023/10/28 07:27:08;;;;;;;2.50;1.50;;;;;;;13.79;74.39;95328.23;108309;1277;22523;-79
2023/10/28 07:29:39;;;;;;;1.60;0.90;;;;;;;14.04;74.69;95336.70;108288;1277;24975;-79
2023/10/28 07:32:10;;;;;;;2.70;1.20;;;;;;;13.99;74.97;95337.01;108310;1277;22524;-79
2023/10/28 07:34:42;;;;;;;1.30;0.90;;;;;;;14.57;74.98;95335.29;108314;1277;26447;-79
2023/10/28 07:37:13;;;;;;;2.20;1.20;;;;;;;15.26;74.82;95339.06;108317;1277;23754;-79
2023/10/28 07:39:45;;;;;;;3.20;1.20;;;;;;;15.79;74.27;95338.70;108278;1278;25562;-79
2023/10/28 07:42:17;;;;;;;1.30;0.70;;;;;;;16.27;73.42;95346.71;108331;1271;25257;-79
2023/10/28 07:44:51;;;;;;;2.80;1.00;;;;;;;16.01;69.48;95344.23;108383;1276;22517;-79
2023/10/28 07:47:23;;;;;;;1.50;0.90;;;;;;;15.84;68.99;95347.33;108275;1277;22528;-79
2023/10/28 07:49:54;;;;;;;2.50;0.80;;;;;;;15.19;66.35;95349.77;108323;1271;23115;-78
2023/10/28 07:52:26;;;;;;;1.70;1.10;;;;;;;14.90;67.00;95355.77;108297;1268;22755;-79
2023/10/28 07:54:57;;;;;;;2.20;0.80;;;;;;;15.22;67.38;95356.42;108323;1274;22565;-78
2023/10/28 07:57:28;;;;;;;1.90;0.80;;;;;;;14.99;65.46;95360.87;108323;1277;25323;-79
2023/10/28 08:00:04;;;;;;;0.90;0.50;;;;;;;15.05;65.67;95355.02;108310;1278;22526;-79
2023/10/28 08:02:36;;;;;;;1.20;0.60;;;;;;;15.00;65.66;95358.52;108340;1275;22629;-79
2023/10/28 08:05:09;;;;;;;1.40;0.70;;;;;;;14.89;65.07;95362.08;108345;1277;22526;-79
2023/10/28 08:07:41;;;;;;;2.60;0.90;;;;;;;14.64;64.89;95371.48;108310;1278;24253;-79
2023/10/28 08:10:14;;;;;;;2.50;0.90;;;;;;;14.72;65.77;95377.66;108235;1277;22528;-79
2023/10/28 08:12:52;;;;;;;1.20;0.60;;;;;;;14.81;66.79;95379.31;108282;1277;22573;-79
2023/10/28 08:15:24;;;;;;;1.40;0.50;;;;;;;14.79;66.56;95386.40;108278;1274;25363;-78
2023/10/28 08:17:55;;;;;;;1.60;0.70;;;;;;;14.31;66.08;95382.89;108305;1270;22535;-79
2023/10/28 08:20:28;;;;;;;0.80;0.70;;;;;;;14.13;67.04;95392.13;108259;1277;22542;-79
2023/10/28 08:23:00;;;;;;;1.30;0.70;;;;;;;13.68;68.03;95397.52;108287;1278;22524;-79
2023/10/28 08:25:32;;;;;;;2.40;0.60;;;;;;;13.19;68.09;95405.16;108307;1277;22921;-79
2023/10/28 08:28:03;;;;;;;1.40;0.90;;;;;;;12.78;68.87;95406.27;108185;1278;175693;-79
2023/10/28 08:30:35;;;;;;;1.40;0.60;;;;;;;12.48;69.85;95408.63;108290;1278;24235;-79
2023/10/28 08:33:07;;;;;;;1.80;0.70;;;;;;;12.39;70.90;95409.11;108298;1265;24244;-79
2023/10/28 08:35:38;;;;;;;1.80;0.80;;;;;;;12.40;71.49;95409.80;108258;1278;23168;-79
2023/10/28 08:38:08;;;;;;;1.00;0.70;;;;;;;12.39;71.74;95414.46;108288;1277;26547;-79
2023/10/28 08:40:50;;;;;;;1.20;0.60;;;;;;;12.44;71.93;95415.31;108245;1278;33288;-79
2023/10/28 08:43:21;;;;;;;0.90;0.50;;;;;;;12.46;71.82;95418.61;108399;1278;22548;-79
2023/10/28 08:45:54;;;;;;;2.40;0.40;;;;;;;12.52;72.30;95416.38;108404;1278;22526;-79
2023/10/28 08:48:25;;;;;;;1.20;0.60;;;;;;;12.65;72.26;95411.80;108264;1278;22707;-79
2023/10/28 08:51:00;;;;;;;1.00;0.40;;;;;;;12.59;71.62;95412.17;108274;1278;22527;-79
2023/10/28 08:53:34;;;;;;;2.60;0.80;;;;;;;12.37;71.88;95417.45;108366;1278;22559;-79
2023/10/28 08:56:07;;;;;;;1.30;0.50;;;;;;;12.30;72.76;95425.92;108290;1277;22538;-79
2023/10/28 08:58:39;;;;;;;1.10;0.70;;;;;;;12.46;73.61;95430.65;108259;1277;22517;-79
2023/10/28 09:01:10;;;;;;;1.60;0.50;;;;;;;12.50;73.00;95432.86;108260;1278;22520;-79
2023/10/28 09:03:43;;;;;;;2.80;0.60;;;;;;;12.43;72.92;95436.98;108284;1277;22510;-79
2023/10/28 09:06:15;;;;;;;1.40;0.50;;;;;;;12.64;73.60;95443.37;108262;1277;22513;-79
2023/10/28 09:08:49;;;;;;;1.70;0.60;;;;;;;12.99;72.91;95434.72;108254;1277;22650;-79
2023/10/28 09:11:23;;;;;;;0.80;0.70;;;;;;;13.18;72.72;95435.88;108239;1278;22541;-79
2023/10/28 09:13:56;;;;;;;1.40;0.30;;;;;;;13.35;72.90;95433.98;108256;1278;25099;-79
2023/10/28 09:16:27;;;;;;;0.80;0.40;;;;;;;13.30;71.41;95441.77;108265;1278;25002;-79
2023/10/28 09:18:58;;;;;;;1.50;0.80;;;;;;;13.17;70.59;95437.45;108237;1278;22548;-79
2023/10/28 09:21:30;;;;;;;1.30;0.50;;;;;;;13.08;69.82;95444.50;108315;1277;24919;-79
2023/10/28 09:24:05;;;;;;;1.10;0.50;;;;;;;13.08;70.47;95447.06;108259;1278;22569;-79
2023/10/28 09:26:36;;;;;;;2.00;0.80;;;;;;;13.22;71.53;95450.96;108311;1271;24226;-79
2023/10/28 09:29:07;;;;;;;2.30;0.80;;;;;;;13.33;71.43;95454.11;108298;1277;22992;-79
2023/10/28 09:31:38;;;;;;;7.80;1.00;;;;;;;13.33;71.51;95461.37;108264;1277;22542;-79
2023/10/28 09:34:09;;;;;;;0.60;0.40;;;;;;;13.37;70.92;95461.41;108228;1278;23851;-79
2023/10/28 09:36:40;;;;;;;1.30;0.60;;;;;;;13.34;71.15;95460.17;108283;1278;22533;-79
2023/10/28 09:39:12;;;;;;;1.20;0.40;;;;;;;13.24;70.46;95459.40;108210;1274;24673;-79
2023/10/28 09:41:44;;;;;;;1.90;0.60;;;;;;;13.02;70.39;95459.68;108513;1278;22517;-79
2023/10/28 09:44:19;;;;;;;1.10;0.40;;;;;;;12.83;69.70;95459.30;108332;1278;23079;-80
2023/10/28 09:46:56;;;;;;;0.70;0.50;;;;;;;12.68;70.10;95467.17;108468;1278;23808;-80
2023/10/28 09:49:31;;;;;;;1.00;0.60;;;;;;;12.58;69.93;95462.42;108227;1271;24544;-80
2023/10/28 09:52:08;;;;;;;1.70;0.70;;;;;;;12.46;70.25;95464.15;108235;1278;25451;-80
2023/10/28 09:54:42;;;;;;;1.10;0.60;;;;;;;12.51;71.31;95464.90;108266;1278;22524;-80
2023/10/28 09:57:13;;;;;;;1.50;0.60;;;;;;;12.69;71.95;95473.07;108252;1278;24802;-80
2023/10/28 09:59:52;;;;;;;1.10;0.60;;;;;;;12.84;72.20;95464.47;108249;1278;22586;-80
2023/10/28 10:02:34;;;;;;;3.70;0.90;;;;;;;13.01;72.33;95466.70;108279;1278;22546;-80
2023/10/28 10:05:11;;;;;;;1.60;0.60;;;;;;;13.18;73.08;95463.58;108280;1278;22520;-80
2023/10/28 10:07:42;;;;;;;2.80;1.10;;;;;;;13.20;71.75;95457.19;108274;1278;25263;-80
2023/10/28 10:10:16;;;;;;;2.30;0.70;;;;;;;13.16;71.59;95461.11;108246;1278;22531;-80
2023/10/28 10:12:53;;;;;;;1.60;0.90;;;;;;;13.05;70.89;95454.48;108535;1278;25440;-80
2023/10/28 10:15:25;;;;;;;3.60;0.80;;;;;;;12.87;71.18;95458.42;108238;1278;22656;-79
2023/10/28 10:18:05;;;;;;;2.40;0.80;;;;;;;12.81;71.63;95458.56;108274;1277;22539;-79
2023/10/28 10:20:36;;;;;;;2.40;1.00;;;;;;;12.86;72.42;95457.17;108307;1272;23149;-79
2023/10/28 10:23:09;;;;;;;1.90;1.30;;;;;;;12.94;72.80;95456.81;108259;1278;22533;-80
2023/10/28 10:25:43;;;;;;;2.20;0.80;;;;;;;12.94;73.01;95459.32;108268;1278;22518;-79
2023/10/28 10:28:18;;;;;;;1.40;0.90;;;;;;;12.85;72.67;95453.70;108260;1277;22990;-79
2023/10/28 10:30:52;;;;;;;2.70;1.00;;;;;;;12.72;72.85;95448.65;108222;1278;22525;-79
2023/10/28 10:33:28;;;;;;;1.80;0.70;;;;;;;12.66;72.94;95443.09;108279;1268;24188;-79
2023/10/28 10:35:59;;;;;;;1.50;0.80;;;;;;;12.52;73.29;95444.10;108259;1278;22558;-79
2023/10/28 10:38:31;;;;;;;3.10;1.20;;;;;;;12.54;73.97;95452.61;108269;1278;24585;-79
2023/10/28 10:41:02;;;;;;;0.90;0.50;;;;;;;12.69;75.00;95456.64;108216;1278;22614;-79
2023/10/28 10:43:34;;;;;;;1.50;0.70;;;;;;;12.93;74.91;95455.26;108388;1274;22547;-79
2023/10/28 10:46:06;;;;;;;1.80;0.80;;;;;;;13.04;75.02;95448.67;108227;1255;22606;-79
2023/10/28 10:48:39;;;;;;;1.70;0.60;;;;;;;13.16;74.64;95446.37;108231;1262;24139;-78
2023/10/28 10:51:10;;;;;;;1.40;1.00;;;;;;;13.18;73.93;95444.27;108218;1278;24428;-79
2023/10/28 10:53:46;;;;;;;0.80;0.60;;;;;;;13.22;73.28;95441.52;108241;1274;24341;-79
2023/10/28 10:56:23;;;;;;;1.20;0.40;;;;;;;13.12;72.34;95447.36;108221;1278;24179;-79
2023/10/28 10:58:55;;;;;;;2.20;1.10;;;;;;;13.02;72.34;95444.88;108226;1278;33152;-78
2023/10/28 11:01:26;;;;;;;2.70;0.70;;;;;;;13.20;72.99;95442.14;108234;1278;23878;-79
2023/10/28 11:03:58;;;;;;;1.30;0.80;;;;;;;13.36;72.92;95443.89;108256;1270;22553;-79
2023/10/28 11:06:29;;;;;;;1.40;0.80;;;;;;;13.47;72.98;95440.29;108257;1278;22533;-79
2023/10/28 11:09:05;;;;;;;1.50;0.70;;;;;;;13.56;72.79;95430.05;108253;1278;22591;-79
2023/10/28 11:11:37;;;;;;;1.10;0.60;;;;;;;13.64;72.20;95422.30;108372;1264;22529;-79
2023/10/28 11:14:08;;;;;;;1.70;0.50;;;;;;;13.72;71.47;95429.36;108231;1268;22717;-79
2023/10/28 11:16:41;;;;;;;1.40;0.70;;;;;;;13.61;69.87;95435.02;108275;1278;22527;-79
2023/10/28 11:19:12;;;;;;;4.00;0.70;;;;;;;13.48;69.77;95444.70;108255;1278;26438;-79
2023/10/28 11:21:44;;;;;;;2.20;0.80;;;;;;;13.31;69.58;95451.16;108285;1272;22514;-79
2023/10/28 11:24:16;;;;;;;2.00;1.20;;;;;;;13.16;70.34;95451.93;108260;1278;22519;-79
2023/10/28 11:26:48;;;;;;;1.60;0.80;;;;;;;13.08;70.76;95459.55;108219;1278;22520;-79
2023/10/28 11:29:20;;;;;;;1.20;0.90;;;;;;;13.02;71.18;95459.62;108250;1278;22662;-79
2023/10/28 11:31:53;;;;;;;0.90;0.60;;;;;;;12.98;70.95;95452.41;108254;1278;22523;-79
2023/10/28 11:34:25;;;;;;;2.80;1.20;;;;;;;12.82;69.90;95461.63;108263;1278;23663;-79
2023/10/28 11:36:57;;;;;;;2.10;1.10;;;;;;;12.77;71.08;95466.61;108226;1268;22529;-79
2023/10/28 11:39:30;;;;;;;1.50;0.40;;;;;;;12.76;71.12;95466.56;108223;1278;22525;-79
2023/10/28 11:42:11;;;;;;;0.70;0.40;;;;;;;12.64;70.51;95468.68;108218;1278;22527;-79
2023/10/28 11:44:43;;;;;;;1.00;0.80;;;;;;;12.53;70.98;95466.34;108303;1279;25051;-79
2023/10/28 11:47:15;;;;;;;1.10;0.80;;;;;;;12.50;71.60;95466.97;108238;1278;22533;-79
2023/10/28 11:49:46;;;;;;;2.20;0.90;;;;;;;12.55;72.10;95469.30;108209;1268;24260;-79